Time;durP1;ratioP1;P1;durP2;ratioP2;P2;SDS_P1;SDS_P2;PMS_P1;PMS_P2;Temp;Humidity;BMP_temperature;BMP_pressure;BME280_temperature;BME280_humidity;BME280_pressure;Samples;Min_cycle;Max_cycle;Signal;HPM_P1;HPM_P2
2022/01/12 00:02:03;;;;;;;50.67;24.33;;;4.60;99.90;;;;;;5029378;28;20431;-54
2022/01/12 00:04:28;;;;;;;50.35;21.10;;;4.60;99.90;;;;;;5030028;28;20072;-56
2022/01/12 00:06:54;;;;;;;44.20;20.48;;;4.60;99.90;;;;;;5028543;28;20407;-52
2022/01/12 00:09:19;;;;;;;48.35;21.17;;;4.60;99.90;;;;;;5031211;28;20037;-53
2022/01/12 00:11:45;;;;;;;51.78;19.80;;;4.50;99.90;;;;;;5030786;28;20021;-53
2022/01/12 00:14:11;;;;;;;41.88;20.60;;;4.50;99.90;;;;;;5029099;28;20033;-53
2022/01/12 00:16:38;;;;;;;46.78;21.42;;;4.50;99.90;;;;;;5029373;28;20033;-51
2022/01/12 00:19:04;;;;;;;40.25;20.08;;;4.50;99.90;;;;;;5030706;28;20041;-53
2022/01/12 00:21:30;;;;;;;45.80;19.35;;;4.50;99.90;;;;;;5025900;28;20039;-52
2022/01/12 00:23:55;;;;;;;46.00;20.13;;;4.50;99.90;;;;;;5029847;28;20116;-51
2022/01/12 00:26:39;;;;;;;52.10;20.30;;;4.50;99.90;;;;;;5029835;28;20091;-52
2022/01/12 00:34:33;;;;;;;53.83;20.45;;;4.50;99.90;;;;;;5024654;28;20084;-52
2022/01/12 00:36:58;;;;;;;44.85;20.02;;;4.50;99.90;;;;;;5029596;28;20053;-54
2022/01/12 00:39:24;;;;;;;48.97;22.08;;;4.50;99.90;;;;;;5030707;28;20479;-54
2022/01/12 00:41:50;;;;;;;54.60;22.05;;;4.40;99.90;;;;;;5024809;28;20038;-52
2022/01/12 00:44:24;;;;;;;48.25;23.30;;;4.40;99.90;;;;;;5031688;28;20029;-52
2022/01/12 00:46:52;;;;;;;51.35;23.30;;;4.20;99.90;;;;;;5031940;28;20025;-52
2022/01/12 00:49:17;;;;;;;55.10;25.02;;;4.10;99.90;;;;;;5034042;28;20375;-52
2022/01/12 00:51:43;;;;;;;50.30;24.35;;;4.00;99.90;;;;;;5033382;28;20029;-52
2022/01/12 00:54:10;;;;;;;64.65;27.00;;;3.90;99.90;;;;;;5034226;28;20497;-55
2022/01/12 00:56:36;;;;;;;59.92;26.05;;;4.00;99.90;;;;;;5030977;28;20029;-52
2022/01/12 00:59:03;;;;;;;55.40;26.23;;;3.90;99.90;;;;;;5033525;28;20021;-52
2022/01/12 01:01:29;;;;;;;58.70;26.63;;;3.80;99.90;;;;;;5031701;28;20025;-52
2022/01/12 01:03:54;;;;;;;56.45;27.00;;;3.80;99.90;;;;;;5033350;28;20410;-52
2022/01/12 01:06:21;;;;;;;59.35;26.60;;;3.80;99.90;;;;;;5034239;28;20034;-52
2022/01/12 01:08:51;;;;;;;64.18;29.25;;;3.70;99.90;;;;;;5033940;28;20293;-54
2022/01/12 01:11:18;;;;;;;69.35;30.08;;;3.80;99.90;;;;;;5033197;28;20491;-56
2022/01/12 01:13:56;;;;;;;55.70;27.92;;;3.70;99.90;;;;;;5035034;28;20044;-52
2022/01/12 01:16:29;;;;;;;64.40;28.83;;;3.70;99.90;;;;;;5032849;28;20478;-53
2022/01/12 01:27:07;;;;;;;60.22;27.75;;;3.70;99.90;;;;;;5033316;28;20059;-53
2022/01/12 01:29:32;;;;;;;70.45;29.02;;;3.80;99.90;;;;;;5033630;28;20540;-55
2022/01/12 01:31:58;;;;;;;64.35;27.58;;;3.80;99.90;;;;;;5032853;28;20030;-52
2022/01/12 01:34:26;;;;;;;58.38;27.95;;;3.80;99.90;;;;;;5033252;28;20052;-53
2022/01/12 01:36:53;;;;;;;57.33;29.63;;;3.80;99.90;;;;;;5033377;28;20030;-53
2022/01/12 01:39:22;;;;;;;55.78;28.83;;;3.90;99.90;;;;;;5032555;28;20030;-51
2022/01/12 01:41:57;;;;;;;57.90;27.38;;;3.90;99.90;;;;;;5031637;28;20176;-51
2022/01/12 01:54:52;;;;;;;54.63;25.17;;;3.90;99.90;;;;;;5035249;28;20040;-53
2022/01/12 01:57:18;;;;;;;65.50;28.08;;;4.00;99.90;;;;;;5034822;28;20078;-54
2022/01/12 01:59:45;;;;;;;54.70;26.48;;;3.90;99.90;;;;;;5033437;28;20116;-53
2022/01/12 02:02:11;;;;;;;55.72;28.73;;;3.90;99.90;;;;;;5033544;28;20088;-54
2022/01/12 02:04:37;;;;;;;65.35;28.70;;;3.90;99.90;;;;;;5032276;28;20025;-53
2022/01/12 02:07:04;;;;;;;69.60;29.38;;;3.80;99.90;;;;;;5033249;28;20108;-53
2022/01/12 02:09:29;;;;;;;56.90;29.08;;;3.80;99.90;;;;;;5033673;28;20028;-55
2022/01/12 02:11:55;;;;;;;62.55;29.65;;;3.80;99.90;;;;;;5033303;28;20029;-53
2022/01/12 02:14:21;;;;;;;63.35;30.10;;;3.80;99.90;;;;;;5032813;28;20033;-55
2022/01/12 02:17:09;;;;;;;66.45;30.13;;;3.80;99.90;;;;;;5032131;28;20123;-54
2022/01/12 02:36:13;;;;;;;71.95;33.20;;;3.90;99.90;;;;;;5033646;28;20035;-53
2022/01/12 02:41:23;;;;;;;80.18;34.47;;;3.90;99.90;;;;;;5031176;28;20498;-55
2022/01/12 02:54:52;;;;;;;81.20;36.30;;;3.80;99.90;;;;;;5031310;28;20022;-51
2022/01/12 02:57:19;;;;;;;94.95;37.03;;;3.80;99.90;;;;;;5031931;28;20283;-54
2022/01/12 03:02:31;;;;;;;88.30;38.95;;;3.80;99.90;;;;;;5031208;28;20099;-51
2022/01/12 03:05:21;;;;;;;94.93;40.47;;;3.80;99.90;;;;;;5032095;28;20037;-51
2022/01/12 03:07:44;;;;;;;90.88;39.50;;;3.70;99.90;;;;;;5032595;28;20471;-52
2022/01/12 03:10:11;;;;;;;91.28;39.97;;;3.70;99.90;;;;;;5030788;28;20084;-52
2022/01/12 03:12:41;;;;;;;91.78;41.45;;;3.70;99.90;;;;;;5031287;28;20041;-52
2022/01/12 03:15:08;;;;;;;102.75;43.15;;;3.70;99.90;;;;;;5032373;28;20045;-52
2022/01/12 03:17:34;;;;;;;96.70;42.88;;;3.70;99.90;;;;;;5031327;28;20029;-54
2022/01/12 03:20:00;;;;;;;89.95;39.78;;;3.70;99.90;;;;;;5027717;28;20116;-52
2022/01/12 03:22:25;;;;;;;102.07;42.90;;;3.80;99.90;;;;;;5030754;28;20037;-52
2022/01/12 03:24:51;;;;;;;101.50;43.78;;;3.70;99.90;;;;;;5031597;28;20033;-53
2022/01/12 03:27:17;;;;;;;104.05;45.40;;;3.70;99.90;;;;;;5030700;28;20132;-53
2022/01/12 03:29:46;;;;;;;93.40;43.60;;;3.70;99.90;;;;;;5031281;28;20071;-54
2022/01/12 03:32:12;;;;;;;100.38;44.38;;;3.70;99.90;;;;;;5023140;28;20037;-54
2022/01/12 03:34:41;;;;;;;108.55;45.08;;;3.70;99.90;;;;;;5030693;28;20064;-56
2022/01/12 03:37:38;;;;;;;104.18;44.13;;;3.70;99.90;;;;;;5031142;28;20108;-53
2022/01/12 03:40:02;;;;;;;95.78;43.88;;;3.70;99.90;;;;;;5030536;28;20038;-53
2022/01/12 03:42:28;;;;;;;118.28;47.67;;;3.70;99.90;;;;;;5024006;28;20036;-53
2022/01/12 03:44:53;;;;;;;102.78;45.90;;;3.70;99.90;;;;;;5031399;28;20029;-53
2022/01/12 03:47:19;;;;;;;114.97;46.33;;;3.80;99.90;;;;;;5031079;28;20037;-56
2022/01/12 03:49:45;;;;;;;123.90;49.47;;;3.70;99.90;;;;;;5030955;28;20032;-55
2022/01/12 03:52:10;;;;;;;125.13;50.03;;;3.70;99.90;;;;;;5030614;28;20593;-53
2022/01/12 03:54:36;;;;;;;124.07;50.50;;;3.70;99.90;;;;;;5029710;28;20159;-54
2022/01/12 03:57:01;;;;;;;115.35;47.92;;;3.70;99.90;;;;;;5030965;28;20087;-56
2022/01/12 03:59:27;;;;;;;127.43;50.15;;;3.60;99.90;;;;;;5030981;28;20034;-56
2022/01/12 04:01:53;;;;;;;115.50;50.55;;;3.70;99.90;;;;;;5031454;28;20033;-54
2022/01/12 04:04:28;;;;;;;124.68;52.08;;;3.60;99.90;;;;;;5030189;28;20593;-56
2022/01/12 04:09:38;;;;;;;124.43;50.10;;;3.60;99.90;;;;;;5031071;28;20510;-54
2022/01/12 04:12:04;;;;;;;126.93;51.67;;;3.60;99.90;;;;;;5030860;28;20025;-55
2022/01/12 04:14:30;;;;;;;139.75;52.35;;;3.70;99.90;;;;;;5029862;28;20297;-57
2022/01/12 04:16:55;;;;;;;123.72;50.55;;;3.70;99.90;;;;;;5029416;28;20045;-54
2022/01/12 04:19:24;;;;;;;127.45;52.83;;;3.60;99.90;;;;;;5029694;28;20092;-55
2022/01/12 04:21:50;;;;;;;129.25;50.55;;;3.70;99.90;;;;;;5029606;28;20033;-53
2022/01/12 04:24:16;;;;;;;121.53;51.38;;;3.60;99.90;;;;;;5029992;28;20530;-55
2022/01/12 04:26:42;;;;;;;128.27;52.72;;;3.70;99.90;;;;;;5029989;28;20033;-52
2022/01/12 04:29:08;;;;;;;136.65;53.33;;;3.70;99.90;;;;;;5031203;28;20030;-52
2022/01/12 04:31:35;;;;;;;120.03;50.00;;;3.70;99.90;;;;;;5030174;28;20064;-52
2022/01/12 04:34:01;;;;;;;123.28;49.65;;;3.70;99.90;;;;;;5029019;28;20037;-53
2022/01/12 04:36:27;;;;;;;124.88;51.05;;;3.60;99.90;;;;;;5030280;28;20061;-52
2022/01/12 04:38:53;;;;;;;123.18;51.00;;;3.60;99.90;;;;;;5030589;28;20065;-52
2022/01/12 04:41:18;;;;;;;115.78;47.42;;;3.60;99.90;;;;;;5029833;28;20116;-52
2022/01/12 04:43:44;;;;;;;123.57;50.97;;;3.70;99.90;;;;;;5030422;28;20566;-52
2022/01/12 04:51:15;;;;;;;117.55;48.85;;;3.70;99.90;;;;;;5029550;28;20030;-52
2022/01/12 04:53:41;;;;;;;108.95;47.38;;;3.60;99.90;;;;;;5029665;28;20032;-52
2022/01/12 04:56:07;;;;;;;124.68;49.10;;;3.70;99.90;;;;;;5030450;28;20079;-53
2022/01/12 04:58:33;;;;;;;122.25;49.70;;;3.60;99.90;;;;;;5029420;28;20044;-53
2022/01/12 05:01:06;;;;;;;139.50;52.60;;;3.60;99.90;;;;;;5029775;28;20029;-52
2022/01/12 05:06:42;;;;;;;124.75;49.50;;;3.70;99.90;;;;;;5029949;28;20033;-53
2022/01/12 05:12:54;;;;;;;121.75;48.13;;;3.70;99.90;;;;;;5025763;28;20449;-52
2022/01/12 05:14:59;;;;;;;121.82;48.75;;;3.70;99.90;;;;;;5017870;28;20038;-52
2022/01/12 05:17:25;;;;;;;122.35;50.72;;;3.60;99.90;;;;;;5029972;28;20129;-52
2022/01/12 05:19:51;;;;;;;122.70;49.33;;;3.70;99.90;;;;;;5029230;28;20507;-52
2022/01/12 05:22:16;;;;;;;110.97;46.60;;;3.70;99.90;;;;;;5028871;28;20091;-52
2022/01/12 05:24:42;;;;;;;122.13;47.60;;;3.70;99.90;;;;;;5028081;28;20025;-52
2022/01/12 05:27:07;;;;;;;121.07;46.45;;;3.70;99.90;;;;;;5029191;28;20040;-54
2022/01/12 05:29:33;;;;;;;121.50;47.40;;;3.70;99.90;;;;;;5029612;28;20027;-52
2022/01/12 05:31:58;;;;;;;114.05;48.90;;;3.70;99.90;;;;;;5030798;28;20065;-52
2022/01/12 05:34:26;;;;;;;121.32;47.53;;;3.70;99.90;;;;;;5032854;28;20641;-52
2022/01/12 05:36:52;;;;;;;115.68;47.60;;;3.70;99.90;;;;;;5033715;28;20034;-52
2022/01/12 05:39:17;;;;;;;122.15;48.28;;;3.70;99.90;;;;;;5031809;28;20029;-52
2022/01/12 05:41:43;;;;;;;128.02;48.40;;;3.70;99.90;;;;;;5034118;28;20036;-52
2022/01/12 05:44:10;;;;;;;120.75;48.97;;;3.70;99.90;;;;;;5033883;28;20029;-55
2022/01/12 05:46:37;;;;;;;121.78;47.33;;;3.70;99.90;;;;;;5033143;28;20319;-52
2022/01/12 05:51:47;;;;;;;116.18;44.60;;;3.80;99.90;;;;;;5033339;28;20036;-51
2022/01/12 05:54:12;;;;;;;116.53;45.20;;;3.80;99.90;;;;;;5033160;28;20395;-53
2022/01/12 05:56:38;;;;;;;111.43;42.80;;;3.80;99.90;;;;;;5033277;28;20045;-53
2022/01/12 05:59:04;;;;;;;115.65;46.63;;;3.80;99.90;;;;;;5069943;22;20036;-59
2022/01/12 06:01:29;;;;;;;117.00;46.65;;;3.80;99.90;;;;;;5048569;28;20086;-53
2022/01/12 06:03:55;;;;;;;121.55;45.53;;;3.80;99.90;;;;;;5044813;28;20033;-54
2022/01/12 06:06:21;;;;;;;113.47;44.17;;;3.80;99.90;;;;;;5044060;28;20044;-52
2022/01/12 06:08:47;;;;;;;110.63;45.50;;;3.80;99.90;;;;;;5052748;28;20052;-55
2022/01/12 06:11:12;;;;;;;106.65;44.97;;;3.80;99.90;;;;;;5051795;28;20580;-53
2022/01/12 06:13:38;;;;;;;122.95;47.05;;;3.70;99.90;;;;;;5053772;28;20037;-50
2022/01/12 06:16:04;;;;;;;110.30;44.40;;;3.70;99.90;;;;;;5048469;28;20033;-51
2022/01/12 06:18:30;;;;;;;114.25;45.03;;;3.80;99.90;;;;;;5051431;28;20458;-56
2022/01/12 06:20:55;;;;;;;124.20;45.03;;;3.80;99.90;;;;;;5050526;28;20048;-57
2022/01/12 06:23:21;;;;;;;111.28;44.60;;;3.80;99.90;;;;;;5051945;28;20379;-54
2022/01/12 06:25:47;;;;;;;116.63;43.58;;;3.80;99.90;;;;;;5046798;28;20068;-54
2022/01/12 06:28:35;;;;;;;120.68;43.25;;;3.80;99.90;;;;;;5047572;28;20017;-53
2022/01/12 06:31:10;;;;;;;118.50;41.85;;;3.80;99.90;;;;;;5049020;28;20512;-54
2022/01/12 06:33:42;;;;;;;118.72;42.40;;;3.90;99.90;;;;;;5053969;28;20457;-52
2022/01/12 06:36:08;;;;;;;120.88;41.92;;;3.90;99.90;;;;;;5053524;28;20092;-53
2022/01/12 06:38:33;;;;;;;135.30;42.38;;;3.90;99.90;;;;;;5050036;28;20028;-51
2022/01/12 06:40:59;;;;;;;112.30;39.33;;;3.90;99.90;;;;;;5059163;28;20028;-50
2022/01/12 06:43:27;;;;;;;134.18;41.13;;;3.90;99.90;;;;;;5046990;28;20044;-50
2022/01/12 06:45:53;;;;;;;118.13;40.67;;;3.80;99.90;;;;;;5051000;28;20029;-51
2022/01/12 06:48:19;;;;;;;130.50;39.08;;;3.90;99.90;;;;;;5046041;28;20548;-55
2022/01/12 06:50:44;;;;;;;134.05;40.95;;;3.90;99.90;;;;;;5049491;28;20028;-58
2022/01/12 06:53:10;;;;;;;133.25;41.58;;;3.90;99.90;;;;;;5050660;28;20486;-59
2022/01/12 06:55:36;;;;;;;119.30;39.85;;;4.00;99.90;;;;;;5050312;28;20021;-53
2022/01/12 06:58:02;;;;;;;130.85;39.40;;;3.90;99.90;;;;;;5047090;28;20037;-56
2022/01/12 07:00:27;;;;;;;129.00;41.55;;;4.00;99.90;;;;;;5049629;28;20044;-50
2022/01/12 07:02:54;;;;;;;117.70;38.17;;;4.00;99.90;;;;;;5048882;28;20029;-50
2022/01/12 07:05:19;;;;;;;126.70;39.00;;;4.00;99.90;;;;;;5051107;28;20486;-49
2022/01/12 07:07:45;;;;;;;137.70;41.22;;;4.00;99.90;;;;;;5048943;28;20110;-46
2022/01/12 07:10:10;;;;;;;123.38;39.25;;;4.00;99.90;;;;;;5050485;28;20040;-51
2022/01/12 07:12:36;;;;;;;122.75;39.28;;;4.00;99.90;;;;;;5049943;28;20025;-51
2022/01/12 07:15:02;;;;;;;134.07;39.25;;;4.00;99.90;;;;;;5050470;28;20064;-48
2022/01/12 07:17:28;;;;;;;137.18;40.83;;;4.00;99.90;;;;;;5051435;28;20036;-53
2022/01/12 07:19:53;;;;;;;143.07;39.65;;;4.00;99.90;;;;;;5049607;28;20037;-55
2022/01/12 07:22:19;;;;;;;145.55;42.17;;;4.00;99.90;;;;;;5047754;28;20053;-47
2022/01/12 07:24:44;;;;;;;151.07;40.47;;;4.10;99.90;;;;;;5050531;28;20486;-52
2022/01/12 07:27:10;;;;;;;141.27;40.20;;;4.10;99.90;;;;;;5047781;28;20025;-50
2022/01/12 07:29:35;;;;;;;170.70;42.97;;;4.10;99.90;;;;;;5046589;28;20103;-53
2022/01/12 07:32:01;;;;;;;162.38;43.03;;;4.10;99.90;;;;;;5044179;28;20032;-53
2022/01/12 07:34:27;;;;;;;181.18;45.15;;;4.10;99.90;;;;;;5048937;28;20025;-50
2022/01/12 07:36:53;;;;;;;159.52;40.78;;;4.10;99.90;;;;;;5047923;28;20024;-54
2022/01/12 07:39:19;;;;;;;160.55;41.22;;;4.10;99.90;;;;;;5050222;28;20116;-52
2022/01/12 07:41:44;;;;;;;163.95;42.58;;;4.10;99.90;;;;;;5046363;28;20143;-52
2022/01/12 07:44:10;;;;;;;151.65;40.88;;;4.10;99.90;;;;;;5049043;28;20033;-62
2022/01/12 07:46:36;;;;;;;129.48;39.72;;;4.30;99.90;;;;;;5048243;28;20404;-57
2022/01/12 07:49:01;;;;;;;139.05;39.17;;;4.30;99.90;;;;;;5042513;28;20420;-58
2022/01/12 07:51:27;;;;;;;114.20;37.03;;;4.50;99.90;;;;;;5049499;28;20044;-57
2022/01/12 07:53:53;;;;;;;119.88;36.38;;;4.40;99.90;;;;;;5048992;28;20430;-60
2022/01/12 07:56:18;;;;;;;113.75;37.00;;;4.60;99.90;;;;;;5048461;28;20091;-61
2022/01/12 07:58:44;;;;;;;109.50;34.55;;;4.50;99.90;;;;;;5044352;28;20052;-49
2022/01/12 08:01:12;;;;;;;117.18;35.28;;;4.50;99.90;;;;;;5041097;28;20493;-51
2022/01/12 08:03:37;;;;;;;124.28;36.13;;;4.40;99.90;;;;;;5039545;28;20051;-51
2022/01/12 08:06:03;;;;;;;112.88;36.10;;;4.50;99.90;;;;;;5046963;28;20040;-50
2022/01/12 08:08:29;;;;;;;112.55;35.72;;;4.40;99.90;;;;;;5047196;28;20037;-50
2022/01/12 08:10:54;;;;;;;108.60;33.83;;;4.40;99.90;;;;;;5048793;28;20120;-48
2022/01/12 08:13:20;;;;;;;106.15;33.20;;;4.40;99.90;;;;;;5049718;28;20037;-50
2022/01/12 08:15:46;;;;;;;106.43;33.15;;;4.40;99.90;;;;;;5049944;28;20033;-50
2022/01/12 08:18:11;;;;;;;113.95;36.70;;;4.40;99.90;;;;;;5048454;28;20278;-51
2022/01/12 08:20:37;;;;;;;111.60;36.13;;;4.40;99.90;;;;;;5047961;28;20544;-49
2022/01/12 08:23:02;;;;;;;100.82;31.85;;;4.40;99.90;;;;;;5047913;28;20179;-51
2022/01/12 08:25:28;;;;;;;96.93;31.92;;;4.40;99.90;;;;;;5049704;28;20466;-54
2022/01/12 08:27:54;;;;;;;98.68;31.92;;;4.40;99.90;;;;;;5048430;28;20021;-48
2022/01/12 08:30:28;;;;;;;95.45;29.15;;;4.40;99.90;;;;;;5047733;28;20082;-49
2022/01/12 08:32:54;;;;;;;95.25;31.33;;;4.50;99.90;;;;;;5047956;28;20534;-48
2022/01/12 08:35:20;;;;;;;101.90;32.33;;;4.40;99.90;;;;;;5049225;28;20049;-47
2022/01/12 08:37:47;;;;;;;94.43;30.33;;;4.50;99.90;;;;;;5048150;28;20110;-53
2022/01/12 08:40:14;;;;;;;80.30;26.65;;;4.50;99.90;;;;;;5047142;28;20398;-51
2022/01/12 08:42:40;;;;;;;80.32;25.10;;;4.50;99.90;;;;;;5048069;28;20053;-57
2022/01/12 08:45:07;;;;;;;73.07;24.75;;;4.50;99.90;;;;;;5047410;28;20029;-54
2022/01/12 08:47:33;;;;;;;85.50;27.67;;;4.50;99.90;;;;;;5046557;28;20021;-50
2022/01/12 08:49:59;;;;;;;74.10;24.83;;;4.50;99.90;;;;;;5048613;28;20031;-51
2022/01/12 08:52:27;;;;;;;77.78;26.05;;;4.50;99.90;;;;;;5048229;28;20046;-50
2022/01/12 08:54:53;;;;;;;79.93;24.95;;;4.50;99.90;;;;;;5047582;28;20107;-54
2022/01/12 08:57:19;;;;;;;67.43;23.02;;;4.60;99.90;;;;;;5046802;28;20451;-55
2022/01/12 08:59:44;;;;;;;81.20;26.33;;;4.60;99.90;;;;;;5044381;28;20044;-55
2022/01/12 09:02:13;;;;;;;70.97;25.35;;;4.60;99.90;;;;;;5047066;28;20029;-53
2022/01/12 09:04:39;;;;;;;80.45;25.33;;;4.60;99.90;;;;;;5047290;28;20166;-51
2022/01/12 09:07:04;;;;;;;68.80;23.95;;;4.60;99.90;;;;;;5039453;28;20026;-53
2022/01/12 09:09:30;;;;;;;69.65;24.45;;;4.80;99.90;;;;;;5047958;28;20516;-50
2022/01/12 09:11:56;;;;;;;70.72;24.95;;;4.80;99.90;;;;;;5052312;28;20508;-55
2022/01/12 09:14:22;;;;;;;70.03;25.58;;;4.90;99.90;;;;;;5051704;28;20040;-50
2022/01/12 09:16:55;;;;;;;75.25;25.60;;;4.90;99.90;;;;;;5052206;28;20029;-54
2022/01/12 09:19:22;;;;;;;74.72;26.58;;;5.10;99.90;;;;;;5051042;28;20139;-55
2022/01/12 09:21:48;;;;;;;68.93;24.50;;;5.00;99.90;;;;;;5050008;28;20052;-51
2022/01/12 09:24:14;;;;;;;69.07;25.75;;;5.00;99.90;;;;;;5052296;28;20116;-53
2022/01/12 09:26:40;;;;;;;69.22;23.85;;;4.90;99.90;;;;;;5054704;28;20144;-50
2022/01/12 09:29:06;;;;;;;70.00;25.85;;;4.90;99.90;;;;;;5053694;28;20119;-50
2022/01/12 09:31:31;;;;;;;76.70;25.75;;;4.90;99.90;;;;;;5051803;28;20041;-54
2022/01/12 09:33:57;;;;;;;70.30;24.85;;;4.80;99.90;;;;;;5051796;28;20041;-48
2022/01/12 09:36:23;;;;;;;76.68;26.00;;;4.80;99.90;;;;;;5050273;28;20118;-51
2022/01/12 09:38:49;;;;;;;79.85;27.40;;;4.80;99.90;;;;;;5052842;28;20056;-51
2022/01/12 09:41:14;;;;;;;77.30;27.65;;;4.70;99.90;;;;;;5049805;28;20451;-50
2022/01/12 09:43:42;;;;;;;80.55;27.75;;;4.70;99.90;;;;;;5049966;28;20033;-50
2022/01/12 09:46:12;;;;;;;74.78;26.95;;;4.80;99.90;;;;;;5049179;28;20029;-51
2022/01/12 09:48:38;;;;;;;90.32;28.65;;;4.80;99.90;;;;;;5051527;28;20075;-51
2022/01/12 09:51:07;;;;;;;79.60;26.98;;;4.80;99.90;;;;;;5051377;28;20105;-54
2022/01/12 09:53:34;;;;;;;84.93;29.77;;;4.90;99.90;;;;;;5048961;28;20832;-53
2022/01/12 09:56:08;;;;;;;77.60;26.42;;;4.80;99.90;;;;;;5051312;28;20094;-52
2022/01/12 09:58:34;;;;;;;75.95;25.20;;;4.80;99.90;;;;;;5045789;28;20032;-50
2022/01/12 10:01:01;;;;;;;72.65;24.77;;;4.80;99.90;;;;;;5050011;28;20317;-54
2022/01/12 10:03:27;;;;;;;77.20;26.30;;;4.70;99.90;;;;;;5049606;28;20039;-55
2022/01/12 10:05:54;;;;;;;72.00;25.13;;;4.70;99.90;;;;;;5050039;28;20390;-54
2022/01/12 10:08:20;;;;;;;72.57;26.05;;;4.70;99.90;;;;;;5051331;28;20036;-52
2022/01/12 10:11:05;;;;;;;65.78;23.15;;;4.70;99.90;;;;;;5050942;28;20037;-56
2022/01/12 10:13:31;;;;;;;69.43;24.40;;;4.80;99.90;;;;;;5051724;28;20098;-50
2022/01/12 10:15:57;;;;;;;66.72;22.60;;;4.70;99.90;;;;;;5049794;28;20044;-55
2022/01/12 10:18:23;;;;;;;65.35;23.35;;;4.80;99.90;;;;;;5047929;28;20115;-55
2022/01/12 10:20:50;;;;;;;67.75;23.13;;;4.80;99.90;;;;;;5050722;28;20029;-56
2022/01/12 10:23:16;;;;;;;77.22;23.75;;;4.80;99.90;;;;;;5046187;28;20055;-49
2022/01/12 10:25:47;;;;;;;61.53;22.90;;;4.80;99.90;;;;;;5046769;28;20029;-52
2022/01/12 10:28:19;;;;;;;70.63;23.77;;;4.80;99.90;;;;;;5051124;28;20033;-51
2022/01/12 10:30:59;;;;;;;67.93;22.90;;;4.90;99.90;;;;;;5047119;28;20120;-54
2022/01/12 10:33:29;;;;;;;67.65;22.60;;;4.90;99.90;;;;;;5048801;28;20037;-50
2022/01/12 10:35:58;;;;;;;67.75;22.98;;;4.90;99.90;;;;;;5051011;28;20025;-53
2022/01/12 10:38:24;;;;;;;58.85;21.27;;;5.00;99.90;;;;;;5050217;28;20094;-56
2022/01/12 10:40:58;;;;;;;60.78;20.70;;;5.00;99.90;;;;;;5048860;28;20032;-55
2022/01/12 10:43:36;;;;;;;72.50;23.35;;;5.00;99.90;;;;;;5049755;28;20032;-55
2022/01/12 10:46:05;;;;;;;57.28;19.50;;;5.00;99.90;;;;;;5050603;28;20025;-55
2022/01/12 10:48:44;;;;;;;58.05;21.23;;;5.00;99.90;;;;;;5049407;28;20114;-55
2022/01/12 10:51:11;;;;;;;57.70;20.55;;;5.00;99.90;;;;;;5049175;28;20061;-53
2022/01/12 10:53:37;;;;;;;55.40;20.88;;;5.10;99.90;;;;;;5048401;28;20033;-55
2022/01/12 10:56:18;;;;;;;59.33;18.65;;;5.10;99.90;;;;;;5050476;28;20063;-54
2022/01/12 10:58:46;;;;;;;49.80;19.88;;;5.10;99.90;;;;;;5049220;28;20348;-55
2022/01/12 11:01:14;;;;;;;54.20;17.55;;;5.10;99.90;;;;;;5049141;28;20033;-53
2022/01/12 11:03:41;;;;;;;48.90;17.60;;;5.20;99.90;;;;;;5049342;28;20025;-50
2022/01/12 11:06:07;;;;;;;47.30;16.48;;;5.30;99.90;;;;;;5050280;28;20104;-50
2022/01/12 11:08:35;;;;;;;47.47;16.90;;;5.40;99.90;;;;;;5048324;28;20029;-50
2022/01/12 11:11:01;;;;;;;53.08;18.42;;;5.50;99.90;;;;;;5048569;28;20127;-53
2022/01/12 11:13:29;;;;;;;54.78;18.08;;;5.50;99.90;;;;;;5048985;28;20555;-49
2022/01/12 11:15:56;;;;;;;58.55;18.38;;;5.60;99.90;;;;;;5050221;28;20043;-49
2022/01/12 11:18:25;;;;;;;54.75;17.90;;;5.80;99.90;;;;;;5047800;28;20115;-52
2022/01/12 11:20:53;;;;;;;61.00;19.27;;;5.90;99.90;;;;;;5049671;28;20103;-50
2022/01/12 11:23:20;;;;;;;52.22;19.52;;;6.00;99.90;;;;;;5050415;28;20014;-49
2022/01/12 11:25:49;;;;;;;45.53;16.83;;;6.10;99.90;;;;;;5049912;28;20025;-53
2022/01/12 11:28:22;;;;;;;54.42;17.27;;;6.10;99.90;;;;;;5046027;28;20021;-57
2022/01/12 11:30:51;;;;;;;55.15;18.23;;;6.10;99.90;;;;;;5043525;28;20035;-52
2022/01/12 11:33:19;;;;;;;59.97;19.38;;;6.10;99.90;;;;;;5049979;28;20635;-51
2022/01/12 11:35:47;;;;;;;56.50;18.35;;;5.90;99.90;;;;;;5048712;28;20035;-51
2022/01/12 11:38:24;;;;;;;46.38;16.35;;;6.00;99.90;;;;;;5047041;28;20107;-56
2022/01/12 11:40:52;;;;;;;50.10;17.05;;;6.10;99.90;;;;;;5049807;28;20397;-49
2022/01/12 11:43:29;;;;;;;49.92;17.65;;;6.20;99.90;;;;;;5045951;28;20025;-56
2022/01/12 11:46:06;;;;;;;55.67;17.85;;;6.30;99.90;;;;;;5038492;28;22060;-51
2022/01/12 11:48:58;;;;;;;52.50;18.33;;;6.40;99.90;;;;;;5049146;28;20057;-52
2022/01/12 11:51:41;;;;;;;48.33;17.35;;;6.40;99.90;;;;;;5048713;28;20027;-50
2022/01/12 11:54:15;;;;;;;49.72;16.67;;;6.50;99.90;;;;;;5049822;28;20017;-49
2022/01/12 11:57:04;;;;;;;51.15;15.75;;;6.50;99.90;;;;;;5048847;28;20036;-51
2022/01/12 11:59:49;;;;;;;50.83;15.02;;;6.50;99.90;;;;;;5029828;28;20086;-49
2022/01/12 12:02:15;;;;;;;53.30;16.58;;;6.40;99.90;;;;;;5048936;28;20047;-56
2022/01/12 12:04:54;;;;;;;40.75;14.80;;;6.50;99.90;;;;;;5049813;28;20505;-52
2022/01/12 12:07:20;;;;;;;45.58;15.02;;;6.70;99.90;;;;;;5048936;28;20105;-50
2022/01/12 12:09:53;;;;;;;38.95;13.50;;;6.70;99.90;;;;;;5048604;28;20037;-51
2022/01/12 12:12:34;;;;;;;50.10;15.30;;;6.60;99.90;;;;;;5047941;28;20021;-55
2022/01/12 12:15:05;;;;;;;42.15;12.90;;;6.60;99.90;;;;;;5047400;28;20394;-52
2022/01/12 12:17:33;;;;;;;43.17;14.50;;;6.60;99.90;;;;;;5042284;28;20017;-53
2022/01/12 12:20:00;;;;;;;43.80;14.25;;;6.70;99.90;;;;;;5047736;28;20039;-56
2022/01/12 12:22:29;;;;;;;44.20;14.57;;;6.70;99.90;;;;;;5041501;28;20017;-52
2022/01/12 12:25:06;;;;;;;43.67;15.00;;;6.60;99.90;;;;;;5047587;28;20092;-53
2022/01/12 12:27:33;;;;;;;45.05;15.60;;;6.70;99.90;;;;;;5049017;28;20029;-57
2022/01/12 12:30:00;;;;;;;42.72;14.32;;;6.80;99.90;;;;;;5048979;28;20582;-54
2022/01/12 12:32:42;;;;;;;45.05;15.95;;;6.90;99.90;;;;;;5048727;28;20044;-57
2022/01/12 12:35:15;;;;;;;50.13;16.85;;;6.80;99.90;;;;;;5049230;28;20033;-57
2022/01/12 12:37:51;;;;;;;53.42;16.23;;;6.70;99.90;;;;;;5048545;28;20048;-56
2022/01/12 12:40:20;;;;;;;54.05;15.48;;;6.80;99.90;;;;;;5048756;28;20138;-57
2022/01/12 12:43:00;;;;;;;52.13;15.68;;;6.70;99.90;;;;;;5050325;28;20033;-55
2022/01/12 12:45:44;;;;;;;50.58;16.75;;;6.70;99.90;;;;;;5051678;28;20021;-54
2022/01/12 12:48:13;;;;;;;46.90;16.13;;;6.60;99.90;;;;;;5053380;28;20025;-59
2022/01/12 12:50:39;;;;;;;44.88;15.45;;;6.50;99.90;;;;;;5051597;28;20033;-58
2022/01/12 12:53:05;;;;;;;48.55;16.05;;;6.50;99.90;;;;;;5053253;28;20036;-55
2022/01/12 12:55:39;;;;;;;50.72;15.57;;;6.50;99.90;;;;;;5052422;28;20029;-58
2022/01/12 12:58:05;;;;;;;48.70;15.13;;;6.50;99.90;;;;;;5051462;28;20063;-56
2022/01/12 13:00:32;;;;;;;46.13;14.30;;;6.50;99.90;;;;;;5050513;28;20029;-52
2022/01/12 13:03:00;;;;;;;44.30;12.95;;;6.50;99.90;;;;;;5053420;28;20151;-58
2022/01/12 13:05:34;;;;;;;39.97;12.05;;;6.50;99.90;;;;;;5053115;28;20040;-57
2022/01/12 13:08:00;;;;;;;43.83;10.60;;;6.50;99.90;;;;;;5052606;28;20024;-55
2022/01/12 13:10:31;;;;;;;33.35;11.05;;;6.50;99.90;;;;;;5051568;28;20031;-54
2022/01/12 13:13:03;;;;;;;40.22;12.13;;;6.50;99.90;;;;;;5052045;28;20128;-53
2022/01/12 13:15:33;;;;;;;47.63;12.07;;;6.50;99.90;;;;;;5046945;28;20115;-54
2022/01/12 13:18:08;;;;;;;42.90;13.00;;;6.60;99.90;;;;;;5043111;28;20120;-56
2022/01/12 13:23:24;;;;;;;56.38;15.90;;;6.70;99.90;;;;;;5052369;28;20039;-57
2022/01/12 13:25:54;;;;;;;47.13;14.73;;;6.70;99.90;;;;;;5052571;28;20111;-60
2022/01/12 13:28:19;;;;;;;40.33;13.82;;;6.60;99.90;;;;;;5052694;28;20112;-57
2022/01/12 13:30:57;;;;;;;46.25;13.77;;;6.70;99.90;;;;;;5049276;28;20174;-56
2022/01/12 13:33:30;;;;;;;40.70;13.00;;;6.70;99.90;;;;;;5051704;28;20017;-57
2022/01/12 13:35:58;;;;;;;37.53;12.52;;;6.70;99.90;;;;;;5051900;28;20029;-57
2022/01/12 13:38:30;;;;;;;40.88;13.45;;;6.80;99.90;;;;;;5050580;28;20112;-58
2022/01/12 13:41:05;;;;;;;39.50;14.15;;;6.80;99.90;;;;;;5051835;28;20048;-55
2022/01/12 13:43:30;;;;;;;33.13;12.20;;;6.90;99.90;;;;;;5059559;28;20025;-54
2022/01/12 13:46:11;;;;;;;43.20;13.57;;;6.70;99.90;;;;;;5050451;28;20023;-57
2022/01/12 13:48:41;;;;;;;45.35;14.07;;;6.70;99.90;;;;;;5042735;28;20025;-64
2022/01/12 13:51:07;;;;;;;41.90;14.13;;;6.50;99.90;;;;;;5049587;28;20413;-55
2022/01/12 13:53:38;;;;;;;47.45;14.18;;;6.50;99.90;;;;;;5049521;28;20025;-55
2022/01/12 13:56:06;;;;;;;44.83;14.38;;;6.40;99.90;;;;;;5046428;28;20060;-56